Terminal Aerodrome Forecast
Issued by NWS

Home | Current Version | Previous Version | Text Only | Print | Product List | Glossary On
Versions: 1 2 3 4 5 6 7 8 9 10 11 12 13 14 15 16 17 18
000
FTUS44 KCRP 031720
TAFALI
TAF
KALI 031720Z 0318/0418 17005KT P6SM SCT040
     FM032000 12014KT P6SM VCTS SCT050CB BKN250
     FM040200 15007KT P6SM FEW030 BKN150
     FM040900 VRB03KT 3SM BR FEW015
     FM041400 16012KT P6SM SCT040=

USA.gov is the U.S. government's official web portal to all federal, state and local government web resources and services.